sensor_id;sensor_type;location;lat;lon;timestamp;temperature;humidity
29241;DHT22;16268;49.880;8.648;2022-07-06T00:01:33;20.20;84.90
29241;DHT22;16268;49.880;8.648;2022-07-06T00:03:59;20.20;85.40
29241;DHT22;16268;49.880;8.648;2022-07-06T00:06:26;20.10;86.80
29241;DHT22;16268;49.880;8.648;2022-07-06T00:08:51;19.90;87.50
29241;DHT22;16268;49.880;8.648;2022-07-06T00:11:17;20.00;88.90
29241;DHT22;16268;49.880;8.648;2022-07-06T00:13:42;20.00;88.90
29241;DHT22;16268;49.880;8.648;2022-07-06T00:16:08;20.00;89.80
29241;DHT22;16268;49.880;8.648;2022-07-06T00:18:34;20.10;90.00
29241;DHT22;16268;49.880;8.648;2022-07-06T00:20:59;20.10;90.00
29241;DHT22;16268;49.880;8.648;2022-07-06T00:23:25;20.10;90.30
29241;DHT22;16268;49.880;8.648;2022-07-06T00:25:51;20.00;90.70
29241;DHT22;16268;49.880;8.648;2022-07-06T00:28:16;20.00;91.20
29241;DHT22;16268;49.880;8.648;2022-07-06T00:30:42;20.00;91.80
29241;DHT22;16268;49.880;8.648;2022-07-06T00:33:07;20.00;91.80
29241;DHT22;16268;49.880;8.648;2022-07-06T00:35:33;20.00;92.10
29241;DHT22;16268;49.880;8.648;2022-07-06T00:37:59;19.80;92.60
29241;DHT22;16268;49.880;8.648;2022-07-06T00:40:25;19.70;93.50
29241;DHT22;16268;49.880;8.648;2022-07-06T00:42:51;19.80;93.70
29241;DHT22;16268;49.880;8.648;2022-07-06T00:45:18;19.70;93.90
29241;DHT22;16268;49.880;8.648;2022-07-06T00:47:45;19.60;94.50
29241;DHT22;16268;49.880;8.648;2022-07-06T00:50:13;19.60;95.10
29241;DHT22;16268;49.880;8.648;2022-07-06T00:52:56;19.60;95.40
29241;DHT22;16268;49.880;8.648;2022-07-06T00:55:24;19.60;96.10
29241;DHT22;16268;49.880;8.648;2022-07-06T00:57:50;19.60;96.40
29241;DHT22;16268;49.880;8.648;2022-07-06T01:00:19;19.50;96.80
29241;DHT22;16268;49.880;8.648;2022-07-06T01:02:45;19.50;97.50
29241;DHT22;16268;49.880;8.648;2022-07-06T01:05:12;19.40;98.10
29241;DHT22;16268;49.880;8.648;2022-07-06T01:07:40;19.40;98.30
29241;DHT22;16268;49.880;8.648;2022-07-06T01:10:07;19.30;99.00
29241;DHT22;16268;49.880;8.648;2022-07-06T01:12:37;19.30;99.40
29241;DHT22;16268;49.880;8.648;2022-07-06T01:15:04;19.20;99.80
29241;DHT22;16268;49.880;8.648;2022-07-06T01:17:31;19.20;99.90
29241;DHT22;16268;49.880;8.648;2022-07-06T01:19:57;19.20;99.90
29241;DHT22;16268;49.880;8.648;2022-07-06T01:22:23;19.20;99.90
29241;DHT22;16268;49.880;8.648;2022-07-06T01:24:48;19.10;99.90
29241;DHT22;16268;49.880;8.648;2022-07-06T01:27:14;19.10;99.90
29241;DHT22;16268;49.880;8.648;2022-07-06T01:29:39;19.10;99.90
29241;DHT22;16268;49.880;8.648;2022-07-06T01:32:05;18.90;99.90
29241;DHT22;16268;49.880;8.648;2022-07-06T01:34:31;18.90;99.90
29241;DHT22;16268;49.880;8.648;2022-07-06T01:36:57;18.90;99.90
29241;DHT22;16268;49.880;8.648;2022-07-06T01:39:22;18.90;99.90
29241;DHT22;16268;49.880;8.648;2022-07-06T01:41:48;18.80;99.90
29241;DHT22;16268;49.880;8.648;2022-07-06T01:44:14;18.80;99.90
29241;DHT22;16268;49.880;8.648;2022-07-06T01:46:39;18.80;99.90
29241;DHT22;16268;49.880;8.648;2022-07-06T01:49:05;18.80;99.90
29241;DHT22;16268;49.880;8.648;2022-07-06T01:51:31;18.80;99.90
29241;DHT22;16268;49.880;8.648;2022-07-06T01:53:57;18.70;99.90
29241;DHT22;16268;49.880;8.648;2022-07-06T01:56:23;18.70;99.90
29241;DHT22;16268;49.880;8.648;2022-07-06T01:58:49;18.70;99.90
29241;DHT22;16268;49.880;8.648;2022-07-06T02:01:17;18.60;99.90
29241;DHT22;16268;49.880;8.648;2022-07-06T02:03:44;18.60;99.90
29241;DHT22;16268;49.880;8.648;2022-07-06T02:06:10;18.50;99.90
29241;DHT22;16268;49.880;8.648;2022-07-06T02:08:38;18.50;99.90
29241;DHT22;16268;49.880;8.648;2022-07-06T02:11:05;18.60;99.90
29241;DHT22;16268;49.880;8.648;2022-07-06T02:13:32;18.50;99.90
29241;DHT22;16268;49.880;8.648;2022-07-06T02:15:57;18.50;99.90
29241;DHT22;16268;49.880;8.648;2022-07-06T02:18:23;18.50;99.90
29241;DHT22;16268;49.880;8.648;2022-07-06T02:20:48;18.40;99.90
29241;DHT22;16268;49.880;8.648;2022-07-06T02:23:14;18.40;99.90
29241;DHT22;16268;49.880;8.648;2022-07-06T02:25:40;18.30;99.90
29241;DHT22;16268;49.880;8.648;2022-07-06T02:28:05;18.30;99.90
29241;DHT22;16268;49.880;8.648;2022-07-06T02:30:31;18.20;99.90
29241;DHT22;16268;49.880;8.648;2022-07-06T02:32:56;18.20;99.90
29241;DHT22;16268;49.880;8.648;2022-07-06T02:35:22;18.20;99.90
29241;DHT22;16268;49.880;8.648;2022-07-06T02:37:48;18.20;99.90
29241;DHT22;16268;49.880;8.648;2022-07-06T02:40:13;18.10;99.90
29241;DHT22;16268;49.880;8.648;2022-07-06T02:42:39;18.00;99.90
29241;DHT22;16268;49.880;8.648;2022-07-06T02:45:05;18.10;99.90
29241;DHT22;16268;49.880;8.648;2022-07-06T02:47:31;18.10;99.90
29241;DHT22;16268;49.880;8.648;2022-07-06T02:49:57;18.00;99.90
29241;DHT22;16268;49.880;8.648;2022-07-06T02:52:22;17.90;99.90
29241;DHT22;16268;49.880;8.648;2022-07-06T02:54:48;18.00;99.90
29241;DHT22;16268;49.880;8.648;2022-07-06T02:57:14;17.90;99.90
29241;DHT22;16268;49.880;8.648;2022-07-06T02:59:40;17.80;99.90
29241;DHT22;16268;49.880;8.648;2022-07-06T03:02:06;17.80;99.90
29241;DHT22;16268;49.880;8.648;2022-07-06T03:04:32;17.70;99.90
29241;DHT22;16268;49.880;8.648;2022-07-06T03:06:58;17.70;99.90
29241;DHT22;16268;49.880;8.648;2022-07-06T03:09:24;17.70;99.90
29241;DHT22;16268;49.880;8.648;2022-07-06T03:11:49;17.70;99.90
29241;DHT22;16268;49.880;8.648;2022-07-06T03:14:15;17.70;99.90
29241;DHT22;16268;49.880;8.648;2022-07-06T03:16:41;17.70;99.90
29241;DHT22;16268;49.880;8.648;2022-07-06T03:19:06;17.60;99.90
29241;DHT22;16268;49.880;8.648;2022-07-06T03:21:32;17.60;99.90
29241;DHT22;16268;49.880;8.648;2022-07-06T03:23:57;17.60;99.90
29241;DHT22;16268;49.880;8.648;2022-07-06T03:26:23;17.50;99.90
29241;DHT22;16268;49.880;8.648;2022-07-06T03:28:49;17.50;99.90
29241;DHT22;16268;49.880;8.648;2022-07-06T03:31:14;17.50;99.90
29241;DHT22;16268;49.880;8.648;2022-07-06T03:33:40;17.40;99.90
29241;DHT22;16268;49.880;8.648;2022-07-06T03:36:06;17.40;99.90
29241;DHT22;16268;49.880;8.648;2022-07-06T03:38:33;17.40;99.90
29241;DHT22;16268;49.880;8.648;2022-07-06T03:40:58;17.40;99.90
29241;DHT22;16268;49.880;8.648;2022-07-06T03:43:24;17.40;99.90
29241;DHT22;16268;49.880;8.648;2022-07-06T03:45:49;17.40;99.90
29241;DHT22;16268;49.880;8.648;2022-07-06T03:48:15;17.40;99.90
29241;DHT22;16268;49.880;8.648;2022-07-06T03:50:40;17.50;99.90
29241;DHT22;16268;49.880;8.648;2022-07-06T03:53:06;17.50;99.90
29241;DHT22;16268;49.880;8.648;2022-07-06T03:55:32;17.50;99.90
29241;DHT22;16268;49.880;8.648;2022-07-06T03:57:57;17.50;99.90
29241;DHT22;16268;49.880;8.648;2022-07-06T04:00:23;17.50;99.90
29241;DHT22;16268;49.880;8.648;2022-07-06T04:02:48;17.40;99.90
29241;DHT22;16268;49.880;8.648;2022-07-06T04:05:14;17.50;99.90
29241;DHT22;16268;49.880;8.648;2022-07-06T04:07:40;17.50;99.90
29241;DHT22;16268;49.880;8.648;2022-07-06T04:10:07;17.50;99.90
29241;DHT22;16268;49.880;8.648;2022-07-06T04:12:40;17.60;99.90
29241;DHT22;16268;49.880;8.648;2022-07-06T04:15:06;17.60;99.90
29241;DHT22;16268;49.880;8.648;2022-07-06T04:17:31;17.60;99.90
29241;DHT22;16268;49.880;8.648;2022-07-06T04:20:15;17.70;99.90
29241;DHT22;16268;49.880;8.648;2022-07-06T04:22:41;17.70;99.90
29241;DHT22;16268;49.880;8.648;2022-07-06T04:25:07;17.80;99.90
29241;DHT22;16268;49.880;8.648;2022-07-06T04:27:33;17.80;99.90
29241;DHT22;16268;49.880;8.648;2022-07-06T04:29:58;17.80;99.90
29241;DHT22;16268;49.880;8.648;2022-07-06T04:32:24;17.80;99.90
29241;DHT22;16268;49.880;8.648;2022-07-06T04:34:50;17.80;99.90
29241;DHT22;16268;49.880;8.648;2022-07-06T04:37:15;17.80;99.90
29241;DHT22;16268;49.880;8.648;2022-07-06T04:39:41;17.80;99.90
29241;DHT22;16268;49.880;8.648;2022-07-06T04:42:06;17.70;99.90
29241;DHT22;16268;49.880;8.648;2022-07-06T04:44:32;17.70;99.90
29241;DHT22;16268;49.880;8.648;2022-07-06T04:46:58;17.70;99.90
29241;DHT22;16268;49.880;8.648;2022-07-06T04:49:23;17.70;99.90
29241;DHT22;16268;49.880;8.648;2022-07-06T04:51:49;17.70;99.90
29241;DHT22;16268;49.880;8.648;2022-07-06T04:54:14;17.80;99.90
29241;DHT22;16268;49.880;8.648;2022-07-06T04:56:40;17.80;99.90
29241;DHT22;16268;49.880;8.648;2022-07-06T04:59:05;17.80;99.90
29241;DHT22;16268;49.880;8.648;2022-07-06T05:01:31;17.70;99.90
29241;DHT22;16268;49.880;8.648;2022-07-06T05:03:57;17.60;99.90
29241;DHT22;16268;49.880;8.648;2022-07-06T05:06:22;17.80;99.90
29241;DHT22;16268;49.880;8.648;2022-07-06T05:08:48;17.90;99.90
29241;DHT22;16268;49.880;8.648;2022-07-06T05:11:13;17.90;99.90
29241;DHT22;16268;49.880;8.648;2022-07-06T05:13:39;17.90;99.90
29241;DHT22;16268;49.880;8.648;2022-07-06T05:16:04;18.00;99.90
29241;DHT22;16268;49.880;8.648;2022-07-06T05:18:30;18.10;99.90
29241;DHT22;16268;49.880;8.648;2022-07-06T05:20:56;18.10;99.90
29241;DHT22;16268;49.880;8.648;2022-07-06T05:23:21;18.30;99.90
29241;DHT22;16268;49.880;8.648;2022-07-06T05:25:47;18.70;99.90
29241;DHT22;16268;49.880;8.648;2022-07-06T05:28:13;19.30;99.90
29241;DHT22;16268;49.880;8.648;2022-07-06T05:30:38;19.60;99.90
29241;DHT22;16268;49.880;8.648;2022-07-06T05:33:04;20.10;99.90
29241;DHT22;16268;49.880;8.648;2022-07-06T05:35:29;20.20;99.90
29241;DHT22;16268;49.880;8.648;2022-07-06T05:37:55;20.30;99.90
29241;DHT22;16268;49.880;8.648;2022-07-06T05:40:21;20.70;99.90
29241;DHT22;16268;49.880;8.648;2022-07-06T05:42:46;21.20;99.90
29241;DHT22;16268;49.880;8.648;2022-07-06T05:45:12;22.10;99.40
29241;DHT22;16268;49.880;8.648;2022-07-06T05:47:37;22.50;97.30
29241;DHT22;16268;49.880;8.648;2022-07-06T05:50:22;23.50;95.90
29241;DHT22;16268;49.880;8.648;2022-07-06T05:53:02;24.50;93.20
29241;DHT22;16268;49.880;8.648;2022-07-06T05:55:28;25.80;88.20
29241;DHT22;16268;49.880;8.648;2022-07-06T05:57:54;26.50;84.60
29241;DHT22;16268;49.880;8.648;2022-07-06T06:00:21;26.40;81.30
29241;DHT22;16268;49.880;8.648;2022-07-06T06:02:48;26.30;81.20
29241;DHT22;16268;49.880;8.648;2022-07-06T06:05:14;26.40;79.70
29241;DHT22;16268;49.880;8.648;2022-07-06T06:07:40;27.70;78.10
29241;DHT22;16268;49.880;8.648;2022-07-06T06:10:08;28.60;72.70
29241;DHT22;16268;49.880;8.648;2022-07-06T06:12:34;28.50;69.80
29241;DHT22;16268;49.880;8.648;2022-07-06T06:15:00;27.90;71.20
29241;DHT22;16268;49.880;8.648;2022-07-06T06:17:26;27.60;71.20
29241;DHT22;16268;49.880;8.648;2022-07-06T06:19:53;27.30;71.60
29241;DHT22;16268;49.880;8.648;2022-07-06T06:22:19;27.00;72.30
29241;DHT22;16268;49.880;8.648;2022-07-06T06:24:44;26.60;73.60
29241;DHT22;16268;49.880;8.648;2022-07-06T06:27:10;25.60;75.80
29241;DHT22;16268;49.880;8.648;2022-07-06T06:29:36;24.90;79.10
29241;DHT22;16268;49.880;8.648;2022-07-06T06:32:01;24.10;82.00
29241;DHT22;16268;49.880;8.648;2022-07-06T06:34:27;23.50;85.50
29241;DHT22;16268;49.880;8.648;2022-07-06T06:36:52;23.00;88.20
29241;DHT22;16268;49.880;8.648;2022-07-06T06:39:18;23.20;88.80
29241;DHT22;16268;49.880;8.648;2022-07-06T06:41:43;23.20;90.00
29241;DHT22;16268;49.880;8.648;2022-07-06T06:44:09;23.40;89.10
29241;DHT22;16268;49.880;8.648;2022-07-06T06:46:34;23.50;87.80
29241;DHT22;16268;49.880;8.648;2022-07-06T06:49:00;23.30;89.80
29241;DHT22;16268;49.880;8.648;2022-07-06T06:51:25;23.50;89.10
29241;DHT22;16268;49.880;8.648;2022-07-06T06:53:51;23.40;88.00
29241;DHT22;16268;49.880;8.648;2022-07-06T06:56:17;23.60;88.80
29241;DHT22;16268;49.880;8.648;2022-07-06T06:58:42;23.30;88.30
29241;DHT22;16268;49.880;8.648;2022-07-06T07:01:08;23.40;89.60
29241;DHT22;16268;49.880;8.648;2022-07-06T07:03:34;24.00;86.60
29241;DHT22;16268;49.880;8.648;2022-07-06T07:06:00;24.30;85.80
29241;DHT22;16268;49.880;8.648;2022-07-06T07:08:25;23.80;85.80
29241;DHT22;16268;49.880;8.648;2022-07-06T07:10:51;23.40;88.20
29241;DHT22;16268;49.880;8.648;2022-07-06T07:13:16;23.70;88.50
29241;DHT22;16268;49.880;8.648;2022-07-06T07:15:42;23.30;88.90
29241;DHT22;16268;49.880;8.648;2022-07-06T07:18:08;23.30;90.00
29241;DHT22;16268;49.880;8.648;2022-07-06T07:20:33;23.70;88.60
29241;DHT22;16268;49.880;8.648;2022-07-06T07:23:00;23.90;86.30
29241;DHT22;16268;49.880;8.648;2022-07-06T07:25:26;23.60;88.30
29241;DHT22;16268;49.880;8.648;2022-07-06T07:27:53;23.50;88.10
29241;DHT22;16268;49.880;8.648;2022-07-06T07:30:18;22.90;89.80
29241;DHT22;16268;49.880;8.648;2022-07-06T07:32:44;22.50;90.30
29241;DHT22;16268;49.880;8.648;2022-07-06T07:35:10;22.30;91.50
29241;DHT22;16268;49.880;8.648;2022-07-06T07:37:35;22.00;92.40
29241;DHT22;16268;49.880;8.648;2022-07-06T07:40:01;22.30;91.70
29241;DHT22;16268;49.880;8.648;2022-07-06T07:42:28;22.50;92.00
29241;DHT22;16268;49.880;8.648;2022-07-06T07:44:53;22.80;91.20
29241;DHT22;16268;49.880;8.648;2022-07-06T07:47:19;23.10;90.70
29241;DHT22;16268;49.880;8.648;2022-07-06T07:49:45;23.20;90.40
29241;DHT22;16268;49.880;8.648;2022-07-06T07:52:10;23.30;89.80
29241;DHT22;16268;49.880;8.648;2022-07-06T07:54:36;22.80;90.30
29241;DHT22;16268;49.880;8.648;2022-07-06T07:57:02;23.00;90.50
29241;DHT22;16268;49.880;8.648;2022-07-06T07:59:28;23.40;90.00
29241;DHT22;16268;49.880;8.648;2022-07-06T08:01:53;23.90;86.20
29241;DHT22;16268;49.880;8.648;2022-07-06T08:04:19;24.10;86.40
29241;DHT22;16268;49.880;8.648;2022-07-06T08:06:45;24.30;85.10
29241;DHT22;16268;49.880;8.648;2022-07-06T08:09:10;23.50;85.90
29241;DHT22;16268;49.880;8.648;2022-07-06T08:11:36;23.60;87.80
29241;DHT22;16268;49.880;8.648;2022-07-06T08:14:02;23.80;86.50
29241;DHT22;16268;49.880;8.648;2022-07-06T08:16:28;23.90;84.00
29241;DHT22;16268;49.880;8.648;2022-07-06T08:18:53;23.50;85.10
29241;DHT22;16268;49.880;8.648;2022-07-06T08:21:19;24.00;83.30
29241;DHT22;16268;49.880;8.648;2022-07-06T08:23:45;24.80;80.30
29241;DHT22;16268;49.880;8.648;2022-07-06T08:26:10;24.80;77.40
29241;DHT22;16268;49.880;8.648;2022-07-06T08:28:36;24.50;78.70
29241;DHT22;16268;49.880;8.648;2022-07-06T08:31:01;24.30;79.40
29241;DHT22;16268;49.880;8.648;2022-07-06T08:33:27;24.00;80.60
29241;DHT22;16268;49.880;8.648;2022-07-06T08:35:54;23.40;80.40
29241;DHT22;16268;49.880;8.648;2022-07-06T08:38:20;23.20;81.90
29241;DHT22;16268;49.880;8.648;2022-07-06T08:40:47;23.60;80.80
29241;DHT22;16268;49.880;8.648;2022-07-06T08:43:14;23.70;80.70
29241;DHT22;16268;49.880;8.648;2022-07-06T08:45:41;24.70;77.00
29241;DHT22;16268;49.880;8.648;2022-07-06T08:48:10;24.90;75.60
29241;DHT22;16268;49.880;8.648;2022-07-06T08:50:36;25.10;75.90
29241;DHT22;16268;49.880;8.648;2022-07-06T08:53:03;25.40;72.80
29241;DHT22;16268;49.880;8.648;2022-07-06T08:55:30;25.90;71.30
29241;DHT22;16268;49.880;8.648;2022-07-06T08:57:56;26.30;70.70
29241;DHT22;16268;49.880;8.648;2022-07-06T09:00:23;27.50;66.50
29241;DHT22;16268;49.880;8.648;2022-07-06T09:02:50;28.60;63.90
29241;DHT22;16268;49.880;8.648;2022-07-06T09:05:17;28.70;63.20
29241;DHT22;16268;49.880;8.648;2022-07-06T09:07:45;28.50;62.00
29241;DHT22;16268;49.880;8.648;2022-07-06T09:10:14;28.40;61.90
29241;DHT22;16268;49.880;8.648;2022-07-06T09:12:42;27.90;63.10
29241;DHT22;16268;49.880;8.648;2022-07-06T09:15:08;27.30;64.60
29241;DHT22;16268;49.880;8.648;2022-07-06T09:17:38;26.50;67.30
29241;DHT22;16268;49.880;8.648;2022-07-06T09:20:07;26.20;67.10
29241;DHT22;16268;49.880;8.648;2022-07-06T09:22:33;26.00;68.00
29241;DHT22;16268;49.880;8.648;2022-07-06T09:25:08;26.00;69.00
29241;DHT22;16268;49.880;8.648;2022-07-06T09:27:42;25.80;69.20
29241;DHT22;16268;49.880;8.648;2022-07-06T09:30:10;25.30;69.80
29241;DHT22;16268;49.880;8.648;2022-07-06T09:32:43;25.30;69.70
29241;DHT22;16268;49.880;8.648;2022-07-06T09:38:14;25.90;68.10
29241;DHT22;16268;49.880;8.648;2022-07-06T09:40:41;26.20;67.20
29241;DHT22;16268;49.880;8.648;2022-07-06T09:43:21;26.20;67.40
29241;DHT22;16268;49.880;8.648;2022-07-06T09:45:55;26.50;65.90
29241;DHT22;16268;49.880;8.648;2022-07-06T09:48:23;26.60;65.00
29241;DHT22;16268;49.880;8.648;2022-07-06T09:50:51;26.70;65.30
29241;DHT22;16268;49.880;8.648;2022-07-06T09:53:19;25.90;65.40
29241;DHT22;16268;49.880;8.648;2022-07-06T09:55:51;25.90;66.10
29241;DHT22;16268;49.880;8.648;2022-07-06T09:58:17;25.90;67.30
29241;DHT22;16268;49.880;8.648;2022-07-06T10:00:44;25.70;67.00
29241;DHT22;16268;49.880;8.648;2022-07-06T10:03:10;25.40;65.90
29241;DHT22;16268;49.880;8.648;2022-07-06T10:05:42;25.20;66.20
29241;DHT22;16268;49.880;8.648;2022-07-06T10:08:09;25.50;64.70
29241;DHT22;16268;49.880;8.648;2022-07-06T10:10:36;25.70;64.00
29241;DHT22;16268;49.880;8.648;2022-07-06T10:13:02;26.90;62.70
29241;DHT22;16268;49.880;8.648;2022-07-06T10:15:30;27.40;59.80
29241;DHT22;16268;49.880;8.648;2022-07-06T10:17:59;28.20;58.80
29241;DHT22;16268;49.880;8.648;2022-07-06T10:20:28;28.60;57.20
29241;DHT22;16268;49.880;8.648;2022-07-06T10:22:54;28.10;56.90
29241;DHT22;16268;49.880;8.648;2022-07-06T10:25:21;28.20;57.50
29241;DHT22;16268;49.880;8.648;2022-07-06T10:27:47;28.80;56.70
29241;DHT22;16268;49.880;8.648;2022-07-06T10:30:14;28.70;55.30
29241;DHT22;16268;49.880;8.648;2022-07-06T10:32:42;28.10;55.50
29241;DHT22;16268;49.880;8.648;2022-07-06T10:35:09;28.00;56.60
29241;DHT22;16268;49.880;8.648;2022-07-06T10:37:35;28.00;54.70
29241;DHT22;16268;49.880;8.648;2022-07-06T10:40:01;28.30;54.70
29241;DHT22;16268;49.880;8.648;2022-07-06T10:42:47;28.50;55.10
29241;DHT22;16268;49.880;8.648;2022-07-06T10:50:38;26.90;56.10
29241;DHT22;16268;49.880;8.648;2022-07-06T10:53:11;26.30;56.70
29241;DHT22;16268;49.880;8.648;2022-07-06T10:55:38;26.50;57.90
29241;DHT22;16268;49.880;8.648;2022-07-06T10:58:04;26.80;55.70
29241;DHT22;16268;49.880;8.648;2022-07-06T11:00:48;26.70;55.20
29241;DHT22;16268;49.880;8.648;2022-07-06T11:06:01;26.50;56.50
29241;DHT22;16268;49.880;8.648;2022-07-06T11:08:57;26.70;56.60
29241;DHT22;16268;49.880;8.648;2022-07-06T11:21:45;25.40;57.60
29241;DHT22;16268;49.880;8.648;2022-07-06T11:24:37;25.50;57.60
29241;DHT22;16268;49.880;8.648;2022-07-06T11:27:03;25.80;56.40
29241;DHT22;16268;49.880;8.648;2022-07-06T11:29:30;25.60;55.60
29241;DHT22;16268;49.880;8.648;2022-07-06T11:31:58;25.80;55.10
29241;DHT22;16268;49.880;8.648;2022-07-06T11:34:31;25.90;55.80
29241;DHT22;16268;49.880;8.648;2022-07-06T11:36:58;25.90;55.20
29241;DHT22;16268;49.880;8.648;2022-07-06T11:39:28;25.80;55.30
29241;DHT22;16268;49.880;8.648;2022-07-06T11:41:55;25.90;55.30
29241;DHT22;16268;49.880;8.648;2022-07-06T11:44:21;25.90;53.90
29241;DHT22;16268;49.880;8.648;2022-07-06T11:46:47;25.70;54.90
29241;DHT22;16268;49.880;8.648;2022-07-06T11:49:13;25.50;55.70
29241;DHT22;16268;49.880;8.648;2022-07-06T11:51:39;25.40;55.20
29241;DHT22;16268;49.880;8.648;2022-07-06T11:54:15;25.40;55.80
29241;DHT22;16268;49.880;8.648;2022-07-06T11:56:55;25.20;55.50
29241;DHT22;16268;49.880;8.648;2022-07-06T11:59:24;25.20;56.60
29241;DHT22;16268;49.880;8.648;2022-07-06T12:01:57;25.30;56.10
29241;DHT22;16268;49.880;8.648;2022-07-06T12:04:24;25.30;57.90
29241;DHT22;16268;49.880;8.648;2022-07-06T12:06:50;25.20;58.20
29241;DHT22;16268;49.880;8.648;2022-07-06T12:09:15;25.40;56.80
29241;DHT22;16268;49.880;8.648;2022-07-06T12:11:44;25.20;57.90
29241;DHT22;16268;49.880;8.648;2022-07-06T12:14:20;25.20;58.00
29241;DHT22;16268;49.880;8.648;2022-07-06T12:16:50;25.10;56.20
29241;DHT22;16268;49.880;8.648;2022-07-06T12:19:16;25.10;57.50
29241;DHT22;16268;49.880;8.648;2022-07-06T12:21:50;25.10;57.60
29241;DHT22;16268;49.880;8.648;2022-07-06T12:24:19;25.20;58.30
29241;DHT22;16268;49.880;8.648;2022-07-06T12:26:45;25.30;55.60
29241;DHT22;16268;49.880;8.648;2022-07-06T12:29:12;25.20;56.60
29241;DHT22;16268;49.880;8.648;2022-07-06T12:32:05;25.20;58.30
29241;DHT22;16268;49.880;8.648;2022-07-06T12:34:31;25.20;57.10
29241;DHT22;16268;49.880;8.648;2022-07-06T12:36:59;25.10;56.10
29241;DHT22;16268;49.880;8.648;2022-07-06T12:39:27;25.20;59.80
29241;DHT22;16268;49.880;8.648;2022-07-06T12:42:01;25.20;54.60
29241;DHT22;16268;49.880;8.648;2022-07-06T12:44:28;25.00;53.40
29241;DHT22;16268;49.880;8.648;2022-07-06T12:47:08;25.00;54.90
29241;DHT22;16268;49.880;8.648;2022-07-06T12:49:35;25.10;55.80
29241;DHT22;16268;49.880;8.648;2022-07-06T12:54:33;25.10;54.20
29241;DHT22;16268;49.880;8.648;2022-07-06T12:57:23;25.00;54.10
29241;DHT22;16268;49.880;8.648;2022-07-06T13:04:55;24.80;55.50
29241;DHT22;16268;49.880;8.648;2022-07-06T13:07:22;24.70;56.00
29241;DHT22;16268;49.880;8.648;2022-07-06T13:09:48;24.80;58.20
29241;DHT22;16268;49.880;8.648;2022-07-06T13:12:13;25.00;56.20
29241;DHT22;16268;49.880;8.648;2022-07-06T13:14:39;25.10;56.70
29241;DHT22;16268;49.880;8.648;2022-07-06T13:17:04;24.80;57.70
29241;DHT22;16268;49.880;8.648;2022-07-06T13:19:30;24.80;58.90
29241;DHT22;16268;49.880;8.648;2022-07-06T13:21:55;24.80;56.10
29241;DHT22;16268;49.880;8.648;2022-07-06T13:24:21;24.60;57.40
29241;DHT22;16268;49.880;8.648;2022-07-06T13:26:46;24.80;59.40
29241;DHT22;16268;49.880;8.648;2022-07-06T13:29:12;24.90;56.90
29241;DHT22;16268;49.880;8.648;2022-07-06T13:31:39;24.90;56.40
29241;DHT22;16268;49.880;8.648;2022-07-06T13:34:05;24.80;57.60
29241;DHT22;16268;49.880;8.648;2022-07-06T13:36:31;24.60;57.30
29241;DHT22;16268;49.880;8.648;2022-07-06T13:38:57;24.60;57.60
29241;DHT22;16268;49.880;8.648;2022-07-06T13:41:22;24.80;57.80
29241;DHT22;16268;49.880;8.648;2022-07-06T13:43:48;24.80;58.10
29241;DHT22;16268;49.880;8.648;2022-07-06T13:46:13;24.90;58.00
29241;DHT22;16268;49.880;8.648;2022-07-06T13:48:39;24.90;57.60
29241;DHT22;16268;49.880;8.648;2022-07-06T13:51:04;25.00;59.00
29241;DHT22;16268;49.880;8.648;2022-07-06T13:53:30;25.10;56.00
29241;DHT22;16268;49.880;8.648;2022-07-06T13:55:57;25.10;57.40
29241;DHT22;16268;49.880;8.648;2022-07-06T13:58:23;25.40;57.10
29241;DHT22;16268;49.880;8.648;2022-07-06T14:00:48;25.60;56.00
29241;DHT22;16268;49.880;8.648;2022-07-06T14:03:14;25.40;56.00
29241;DHT22;16268;49.880;8.648;2022-07-06T14:05:39;25.30;57.40
29241;DHT22;16268;49.880;8.648;2022-07-06T14:08:05;25.20;55.80
29241;DHT22;16268;49.880;8.648;2022-07-06T14:10:31;25.00;55.20
29241;DHT22;16268;49.880;8.648;2022-07-06T14:12:56;25.00;58.30
29241;DHT22;16268;49.880;8.648;2022-07-06T14:15:22;25.00;57.60
29241;DHT22;16268;49.880;8.648;2022-07-06T14:17:47;25.20;57.90
29241;DHT22;16268;49.880;8.648;2022-07-06T14:20:14;25.20;59.20
29241;DHT22;16268;49.880;8.648;2022-07-06T14:22:40;24.90;57.20
29241;DHT22;16268;49.880;8.648;2022-07-06T14:25:05;24.80;57.90
29241;DHT22;16268;49.880;8.648;2022-07-06T14:27:35;24.80;56.70
29241;DHT22;16268;49.880;8.648;2022-07-06T14:30:01;24.70;57.70
29241;DHT22;16268;49.880;8.648;2022-07-06T14:32:26;24.60;58.80
29241;DHT22;16268;49.880;8.648;2022-07-06T14:34:52;24.60;59.80
29241;DHT22;16268;49.880;8.648;2022-07-06T14:37:17;24.60;59.50
29241;DHT22;16268;49.880;8.648;2022-07-06T14:39:43;24.70;58.00
29241;DHT22;16268;49.880;8.648;2022-07-06T14:42:12;24.70;60.70
29241;DHT22;16268;49.880;8.648;2022-07-06T14:44:37;24.80;59.00
29241;DHT22;16268;49.880;8.648;2022-07-06T14:47:03;24.80;58.40
29241;DHT22;16268;49.880;8.648;2022-07-06T14:49:30;24.60;59.10
29241;DHT22;16268;49.880;8.648;2022-07-06T14:51:55;24.70;59.90
29241;DHT22;16268;49.880;8.648;2022-07-06T14:54:23;24.80;60.60
29241;DHT22;16268;49.880;8.648;2022-07-06T14:56:48;24.80;58.50
29241;DHT22;16268;49.880;8.648;2022-07-06T14:59:14;24.70;59.30
29241;DHT22;16268;49.880;8.648;2022-07-06T15:01:39;24.60;63.50
29241;DHT22;16268;49.880;8.648;2022-07-06T15:04:05;24.60;60.10
29241;DHT22;16268;49.880;8.648;2022-07-06T15:06:31;24.60;60.10
29241;DHT22;16268;49.880;8.648;2022-07-06T15:08:56;24.60;59.40
29241;DHT22;16268;49.880;8.648;2022-07-06T15:11:22;24.60;58.40
29241;DHT22;16268;49.880;8.648;2022-07-06T15:13:47;24.30;60.00
29241;DHT22;16268;49.880;8.648;2022-07-06T15:16:13;24.40;59.00
29241;DHT22;16268;49.880;8.648;2022-07-06T15:18:38;24.60;59.60
29241;DHT22;16268;49.880;8.648;2022-07-06T15:21:04;24.70;59.70
29241;DHT22;16268;49.880;8.648;2022-07-06T15:23:30;24.60;59.00
29241;DHT22;16268;49.880;8.648;2022-07-06T15:25:55;24.80;59.00
29241;DHT22;16268;49.880;8.648;2022-07-06T15:28:22;24.90;58.50
29241;DHT22;16268;49.880;8.648;2022-07-06T15:30:49;24.90;59.10
29241;DHT22;16268;49.880;8.648;2022-07-06T15:33:15;24.70;57.70
29241;DHT22;16268;49.880;8.648;2022-07-06T15:35:40;24.70;57.50
29241;DHT22;16268;49.880;8.648;2022-07-06T15:38:06;24.60;58.90
29241;DHT22;16268;49.880;8.648;2022-07-06T15:40:32;24.60;57.80
29241;DHT22;16268;49.880;8.648;2022-07-06T15:43:03;24.70;57.20
29241;DHT22;16268;49.880;8.648;2022-07-06T15:45:28;24.60;59.70
29241;DHT22;16268;49.880;8.648;2022-07-06T15:47:54;24.60;59.10
29241;DHT22;16268;49.880;8.648;2022-07-06T15:50:20;24.70;59.00
29241;DHT22;16268;49.880;8.648;2022-07-06T15:52:46;24.80;57.70
29241;DHT22;16268;49.880;8.648;2022-07-06T15:55:12;24.70;57.20
29241;DHT22;16268;49.880;8.648;2022-07-06T15:57:38;24.60;57.00